Time;durP1;ratioP1;P1;durP2;ratioP2;P2;SDS_P1;SDS_P2;PMS_P1;PMS_P2;Temp;Humidity;BMP_temperature;BMP_pressure;BME280_temperature;BME280_humidity;BME280_pressure;Samples;Min_cycle;Max_cycle;Signal;HPM_P1;HPM_P2
2022/03/20 00:00:22;;;;;;;;;6.25;5.75;;;;;18.55;26.92;102195.88;5077383;27;45408;-48
2022/03/20 00:02:48;;;;;;;;;7.00;5.75;;;;;18.54;26.75;102195.03;5077470;27;45415;-49
2022/03/20 00:05:14;;;;;;;;;5.75;5.25;;;;;18.54;26.88;102200.28;5077582;28;45208;-48
2022/03/20 00:07:41;;;;;;;;;5.50;5.00;;;;;18.53;26.81;102198.56;5077461;27;45799;-50
2022/03/20 00:10:08;;;;;;;;;5.00;4.00;;;;;18.53;26.63;102188.06;5077399;27;45343;-50
2022/03/20 00:12:34;;;;;;;;;5.00;5.00;;;;;18.52;26.59;102191.56;5077403;27;45327;-49
2022/03/20 00:15:00;;;;;;;;;4.00;4.00;;;;;18.52;26.73;102188.94;5076968;27;45200;-48
2022/03/20 00:17:25;;;;;;;;;5.75;4.00;;;;;18.52;26.63;102190.72;5077042;27;45477;-53
2022/03/20 00:19:51;;;;;;;;;4.75;4.00;;;;;18.51;26.48;102181.13;5077133;27;45260;-51
2022/03/20 00:22:17;;;;;;;;;5.75;4.50;;;;;18.51;26.38;102184.59;5077028;27;45611;-53
2022/03/20 00:24:47;;;;;;;;;5.00;4.50;;;;;18.51;26.49;102173.25;5075877;28;47020;-53
2022/03/20 00:27:14;;;;;;;;;5.00;3.25;;;;;18.50;26.58;102188.13;5077116;27;45974;-52
2022/03/20 00:29:39;;;;;;;;;5.00;3.50;;;;;18.51;26.65;102181.13;5077187;27;45349;-51
2022/03/20 00:32:06;;;;;;;;;4.00;4.00;;;;;18.50;26.57;102188.13;5075941;28;45441;-53
2022/03/20 00:34:32;;;;;;;;;3.00;3.00;;;;;18.49;26.76;102183.75;5076569;27;46274;-53
2022/03/20 00:36:57;;;;;;;;;5.00;4.00;;;;;18.49;26.69;102183.75;5076762;27;45499;-51
2022/03/20 00:39:23;;;;;;;;;4.00;4.00;;;;;18.50;26.72;102188.13;5058734;28;45408;-47
2022/03/20 00:41:48;;;;;;;;;3.75;3.50;;;;;18.50;26.58;102180.25;5076179;27;45555;-52
2022/03/20 00:44:14;;;;;;;;;4.50;3.00;;;;;18.49;26.47;102181.13;5076853;27;45439;-49
2022/03/20 00:46:39;;;;;;;;;3.00;3.00;;;;;18.50;26.37;102177.63;5076664;27;45602;-46
2022/03/20 00:49:05;;;;;;;;;4.00;4.00;;;;;18.49;26.25;102181.13;5076729;27;45408;-50
2022/03/20 00:51:31;;;;;;;;;3.50;3.50;;;;;18.50;26.42;102172.38;5076859;27;45321;-51
2022/03/20 00:53:57;;;;;;;;;2.00;2.00;;;;;18.51;26.56;102170.63;5076358;27;46218;-51
2022/03/20 00:56:22;;;;;;;;;4.75;3.00;;;;;18.51;26.38;102183.75;5076379;27;45351;-51
2022/03/20 00:58:48;;;;;;;;;3.00;2.00;;;;;18.50;26.44;102167.13;5075262;28;45411;-51
2022/03/20 01:01:14;;;;;;;;;2.75;1.25;;;;;18.49;26.47;102173.25;5076906;28;45378;-47
2022/03/20 01:03:41;;;;;;;;;3.50;2.25;;;;;18.49;26.65;102167.16;5076219;27;46297;-48
2022/03/20 01:06:07;;;;;;;;;2.50;2.50;;;;;18.48;26.18;102161.03;5076424;27;45795;-51
2022/03/20 01:08:34;;;;;;;;;5.00;2.00;;;;;18.50;26.51;102167.13;5076398;27;45410;-48
2022/03/20 01:11:01;;;;;;;;;3.25;3.25;;;;;18.49;26.50;102162.75;5076539;27;45520;-45
2022/03/20 01:13:27;;;;;;;;;2.00;2.00;;;;;18.49;26.43;102164.53;5074786;28;48420;-48
2022/03/20 01:15:52;;;;;;;;;3.50;3.00;;;;;18.49;26.64;102154.88;5076067;27;45503;-47
2022/03/20 01:18:17;;;;;;;;;4.00;2.00;;;;;18.48;26.63;102154.94;5075214;28;45478;-52
2022/03/20 01:20:43;;;;;;;;;2.25;2.25;;;;;18.49;26.40;102159.28;5076823;27;45424;-50
2022/03/20 01:23:08;;;;;;;;;2.00;2.00;;;;;18.50;26.44;102161.00;5075955;27;46890;-50
2022/03/20 01:25:34;;;;;;;;;5.25;2.50;;;;;18.49;26.49;102154.88;5076092;27;45348;-47
2022/03/20 01:27:59;;;;;;;;;3.50;2.25;;;;;18.49;26.30;102149.63;5076357;27;45311;-47
2022/03/20 01:30:24;;;;;;;;;2.75;2.75;;;;;18.49;26.53;102149.63;5076397;27;45493;-50
2022/03/20 01:32:50;;;;;;;;;1.00;1.00;;;;;18.49;26.43;102143.53;5075876;27;45314;-46
2022/03/20 01:35:15;;;;;;;;;2.00;2.00;;;;;18.49;26.47;102141.75;5076268;27;45234;-54
2022/03/20 01:37:41;;;;;;;;;2.00;2.00;;;;;18.49;26.66;102144.38;5076199;27;45231;-53
2022/03/20 01:40:07;;;;;;;;;1.25;1.25;;;;;18.49;26.46;102139.13;5076258;27;45491;-48
2022/03/20 01:42:33;;;;;;;;;3.00;2.00;;;;;18.49;26.74;102136.50;5075767;27;46452;-48
2022/03/20 01:44:58;;;;;;;;;2.25;2.25;;;;;18.50;26.62;102140.00;5075876;27;45216;-55
2022/03/20 01:47:23;;;;;;;;;2.50;2.50;;;;;18.50;26.79;102140.00;5076088;27;45254;-52
2022/03/20 01:49:49;;;;;;;;;2.00;2.00;;;;;18.49;26.60;102147.00;5076732;27;45219;-53
2022/03/20 01:52:15;;;;;;;;;2.00;2.00;;;;;18.48;26.36;102132.16;5076034;27;45326;-53
2022/03/20 01:54:45;;;;;;;;;2.00;2.00;;;;;18.48;26.27;102132.16;5078304;27;45479;-52
2022/03/20 01:57:16;;;;;;;;;4.50;2.00;;;;;18.49;26.44;102126.00;5079147;27;45250;-51
2022/03/20 01:59:41;;;;;;;;;2.00;2.00;;;;;18.48;26.46;102120.81;5079427;27;45318;-52
2022/03/20 02:02:07;;;;;;;;;1.75;1.75;;;;;18.48;26.40;102126.06;5078831;27;46535;-54
2022/03/20 02:04:36;;;;;;;;;1.75;1.75;;;;;18.48;26.53;102126.06;5078990;27;45452;-52
2022/03/20 02:07:02;;;;;;;;;2.25;2.25;;;;;18.48;26.57;102126.91;5079318;28;45300;-49
2022/03/20 02:09:28;;;;;;;;;1.50;1.50;;;;;18.49;26.63;102123.38;5079328;27;45608;-48
2022/03/20 02:11:55;;;;;;;;;2.00;2.00;;;;;18.46;26.67;102112.97;5078907;27;45251;-49
2022/03/20 02:14:20;;;;;;;;;2.75;2.00;;;;;18.48;26.61;102110.31;5079142;27;45413;-48
2022/03/20 02:16:46;;;;;;;;;2.00;2.00;;;;;18.47;26.59;102105.97;5079287;27;45463;-46
2022/03/20 02:19:15;;;;;;;;;1.00;1.00;;;;;18.47;26.74;102109.44;5079249;27;45650;-52
2022/03/20 02:21:45;;;;;;;;;1.75;1.75;;;;;18.46;26.37;102099.84;5078589;27;46580;-54
2022/03/20 02:24:41;;;;;;;;;2.00;2.00;;;;;18.47;26.73;102104.19;5078867;27;45448;-51
2022/03/20 02:27:07;;;;;;;;;2.00;1.50;;;;;18.46;26.71;102097.22;5078768;27;45410;-54
2022/03/20 02:29:33;;;;;;;;;3.00;1.50;;;;;18.47;26.85;102098.94;5079009;27;45337;-51
2022/03/20 02:31:59;;;;;;;;;2.50;2.50;;;;;18.45;26.66;102089.38;5078491;27;45426;-53
2022/03/20 02:34:30;;;;;;;;;2.00;2.00;;;;;18.46;26.50;102078.84;5078703;28;45255;-52
2022/03/20 02:36:57;;;;;;;;;1.75;1.75;;;;;18.46;26.64;102075.34;5078658;27;45368;-52
2022/03/20 02:39:23;;;;;;;;;1.25;1.25;;;;;18.45;26.81;102082.38;5078996;27;45343;-51
2022/03/20 02:41:50;;;;;;;;;4.75;2.50;;;;;18.47;26.78;102084.94;5078455;27;45422;-50
2022/03/20 02:44:16;;;;;;;;;2.00;2.00;;;;;18.46;26.68;102075.34;5077276;28;45356;-53
2022/03/20 02:46:42;;;;;;;;;2.50;1.50;;;;;18.46;26.71;102076.22;5078564;27;45296;-54
2022/03/20 02:49:09;;;;;;;;;1.00;1.00;;;;;18.45;26.73;102077.13;5078660;27;45596;-52
2022/03/20 02:51:36;;;;;;;;;2.25;1.25;;;;;18.46;26.67;102070.09;5078347;27;45462;-52
2022/03/20 02:54:02;;;;;;;;;1.75;1.75;;;;;18.45;26.74;102077.13;5078273;27;45921;-55
2022/03/20 02:56:29;;;;;;;;;3.25;2.75;;;;;18.45;26.75;102079.75;5078416;27;45390;-54
2022/03/20 02:58:57;;;;;;;;;1.75;1.75;;;;;18.46;26.83;102075.34;5078580;27;45246;-53
2022/03/20 03:01:23;;;;;;;;;3.00;2.25;;;;;18.45;26.91;102078.88;5078203;27;46316;-48
2022/03/20 03:03:48;;;;;;;;;2.75;2.75;;;;;18.44;26.82;102067.53;5078396;27;45224;-52
2022/03/20 03:06:14;;;;;;;;;2.00;2.00;;;;;18.43;26.71;102065.81;5077583;27;45215;-53
2022/03/20 03:11:24;;;;;;;;;1.75;1.00;;;;;18.44;26.67;102059.66;5078173;28;45783;-50
2022/03/20 03:13:50;;;;;;;;;1.00;1.00;;;;;18.43;26.65;102065.81;5078300;27;45214;-54
2022/03/20 03:16:16;;;;;;;;;2.00;2.00;;;;;18.44;26.93;102051.78;5078078;28;45516;-54
2022/03/20 03:18:44;;;;;;;;;1.00;1.00;;;;;18.44;26.69;102045.66;5078212;27;45327;-53
2022/03/20 03:21:15;;;;;;;;;2.00;1.75;;;;;18.43;26.60;102055.31;5077665;27;45471;-50
2022/03/20 03:23:42;;;;;;;;;4.00;2.50;;;;;18.42;26.73;102048.31;5077635;27;45970;-52
2022/03/20 03:26:10;;;;;;;;;3.00;1.75;;;;;18.42;26.62;102048.31;5078008;27;45358;-50
2022/03/20 03:28:36;;;;;;;;;3.25;2.00;;;;;18.42;26.80;102050.94;5093823;27;45568;-50
2022/03/20 03:31:05;;;;;;;;;1.25;1.25;;;;;18.42;26.79;102043.06;5077399;27;46301;-51
2022/03/20 03:33:31;;;;;;;;;1.00;1.00;;;;;18.41;26.66;102043.97;5077573;27;45757;-53
2022/03/20 03:35:57;;;;;;;;;2.25;2.25;;;;;18.41;26.87;102043.97;5077750;27;45409;-54
2022/03/20 03:38:30;;;;;;;;;1.00;1.00;;;;;18.42;26.81;102047.44;5078256;27;45464;-49
2022/03/20 03:40:56;;;;;;;;;2.00;2.00;;;;;18.39;26.73;102046.66;5076201;28;46992;-53
2022/03/20 03:43:22;;;;;;;;;2.75;2.75;;;;;18.40;26.88;102050.13;5077790;27;45469;-55
2022/03/20 03:45:48;;;;;;;;;2.00;1.00;;;;;18.40;26.80;102044.88;5077769;27;45354;-48
2022/03/20 03:48:14;;;;;;;;;2.50;2.00;;;;;18.41;26.79;102054.47;5077744;27;45491;-51
2022/03/20 03:50:42;;;;;;;;;2.00;2.00;;;;;18.40;26.70;102050.13;5077525;27;45341;-47
2022/03/20 03:53:10;;;;;;;;;2.75;2.00;;;;;18.40;26.70;102044.88;5077545;28;45253;-47
2022/03/20 03:55:37;;;;;;;;;4.00;2.25;;;;;18.41;26.73;102056.25;5077600;27;45340;-52
2022/03/20 03:58:03;;;;;;;;;3.75;2.25;;;;;18.39;26.93;102045.78;5077626;27;45279;-45
2022/03/20 04:00:32;;;;;;;;;1.00;1.00;;;;;18.39;26.74;102041.41;5077199;27;46532;-45
2022/03/20 04:02:59;;;;;;;;;5.00;2.25;;;;;18.38;26.67;102037.06;5077235;27;45797;-45
2022/03/20 04:05:24;;;;;;;;;2.75;1.75;;;;;18.39;26.83;102041.41;5077664;27;45289;-48
2022/03/20 04:07:50;;;;;;;;;2.00;2.00;;;;;18.38;26.90;102046.69;5076226;28;45611;-51
2022/03/20 04:10:17;;;;;;;;;3.00;2.00;;;;;18.39;26.88;102048.41;5075987;28;45793;-52
2022/03/20 04:12:43;;;;;;;;;2.00;2.00;;;;;18.39;26.73;102045.78;5075766;28;45320;-51
2022/03/20 04:15:10;;;;;;;;;2.00;2.00;;;;;18.38;26.56;102049.31;5077003;27;45393;-53
2022/03/20 04:17:36;;;;;;;;;2.50;1.25;;;;;18.37;26.91;102048.47;5077160;27;45170;-53
2022/03/20 04:20:02;;;;;;;;;2.00;2.00;;;;;18.37;27.01;102039.69;5076993;27;45862;-46
2022/03/20 04:22:28;;;;;;;;;3.00;3.00;;;;;18.38;27.01;102044.06;5076735;27;45265;-47
2022/03/20 04:24:54;;;;;;;;;2.25;2.25;;;;;18.37;26.69;102053.69;5077433;27;45272;-53
2022/03/20 04:27:20;;;;;;;;;3.00;3.00;;;;;18.36;26.55;102048.47;5077111;27;45611;-51
2022/03/20 04:29:46;;;;;;;;;1.50;1.50;;;;;18.35;26.77;102047.63;5076740;27;46247;-53
2022/03/20 04:32:13;;;;;;;;;3.00;1.75;;;;;18.34;26.59;102045.06;5076846;27;45973;-53
2022/03/20 04:34:42;;;;;;;;;3.00;1.00;;;;;18.36;26.69;102043.22;5076985;27;45359;-50
2022/03/20 04:37:10;;;;;;;;;2.00;2.00;;;;;18.35;26.72;102036.28;5077096;27;45806;-52
2022/03/20 04:39:38;;;;;;;;;3.00;2.75;;;;;18.35;26.82;102031.03;5076635;27;46379;-47
2022/03/20 04:42:04;;;;;;;;;3.75;3.75;;;;;18.35;26.67;102033.66;5076620;27;45758;-52
2022/03/20 04:44:30;;;;;;;;;3.50;2.00;;;;;18.35;26.84;102031.03;5076664;27;45272;-51
2022/03/20 04:46:56;;;;;;;;;2.75;2.50;;;;;18.35;26.85;102041.53;5077386;27;45208;-51
2022/03/20 05:00:20;;;;;;;;;2.25;2.25;;;;;18.33;27.04;102027.59;5076440;28;45697;-51
2022/03/20 05:02:46;;;;;;;;;2.00;2.00;;;;;18.30;26.72;102028.50;5076340;27;45790;-52
2022/03/20 05:05:11;;;;;;;;;4.00;2.00;;;;;18.31;26.90;102027.59;5076518;27;45645;-50
2022/03/20 05:07:36;;;;;;;;;3.75;2.75;;;;;18.32;26.73;102020.59;5076599;27;45434;-51
2022/03/20 05:15:31;;;;;;;;;4.00;2.25;;;;;18.32;27.00;102033.72;5075271;28;45380;-53
2022/03/20 05:17:57;;;;;;;;;3.25;2.25;;;;;18.32;27.06;102033.72;5076812;27;45570;-52
2022/03/20 05:20:23;;;;;;;;;6.75;4.00;;;;;18.31;27.07;102032.00;5076073;27;45350;-50
2022/03/20 05:22:49;;;;;;;;;2.50;2.50;;;;;18.32;27.08;102036.34;5076072;27;45777;-52
2022/03/20 05:25:16;;;;;;;;;3.25;3.00;;;;;18.31;26.91;102029.38;5076377;27;45485;-50
2022/03/20 05:27:42;;;;;;;;;4.00;2.50;;;;;18.30;27.04;102022.41;5076317;27;45512;-53
2022/03/20 05:30:08;;;;;;;;;2.75;2.75;;;;;18.31;26.97;102029.38;5079321;27;45429;-51
2022/03/20 05:32:37;;;;;;;;;3.50;2.00;;;;;18.30;26.92;102033.75;5079483;28;45460;-50
2022/03/20 05:35:04;;;;;;;;;2.00;2.00;;;;;18.30;27.17;102025.03;5079763;27;45407;-49
2022/03/20 05:37:30;;;;;;;;;3.00;3.00;;;;;18.30;27.19;102030.28;5080078;27;45468;-50
2022/03/20 05:39:55;;;;;;;;;2.00;2.00;;;;;18.30;27.16;102019.78;5079437;27;46050;-51
2022/03/20 05:42:20;;;;;;;;;3.00;2.25;;;;;18.30;27.17;102019.78;5079480;27;45414;-52
2022/03/20 05:44:46;;;;;;;;;3.25;3.25;;;;;18.29;27.10;102018.06;5078270;27;45446;-46
2022/03/20 05:47:12;;;;;;;;;3.25;3.00;;;;;18.30;27.13;102022.41;5079689;28;45495;-50
2022/03/20 05:49:38;;;;;;;;;3.00;3.00;;;;;18.28;27.25;102022.47;5079492;27;46111;-50
2022/03/20 05:52:04;;;;;;;;;2.25;2.25;;;;;18.29;27.20;102025.94;5079368;28;45479;-54
2022/03/20 05:54:30;;;;;;;;;4.75;3.00;;;;;18.28;26.90;102022.47;5079895;27;45396;-56
2022/03/20 05:59:39;;;;;;;;;6.25;2.25;;;;;18.26;27.15;102018.13;5079250;27;45376;-53
2022/03/20 06:02:09;;;;;;;;;2.00;2.00;;;;;18.28;27.10;102018.97;5079077;27;45483;-52
2022/03/20 06:04:35;;;;;;;;;3.25;3.25;;;;;18.27;27.06;102011.97;5079326;27;45501;-53
2022/03/20 06:07:01;;;;;;;;;3.50;3.00;;;;;18.26;27.05;102007.63;5078399;28;45427;-51
2022/03/20 06:09:26;;;;;;;;;4.50;2.75;;;;;18.26;27.11;102015.50;5078862;27;46664;-52
2022/03/20 06:11:51;;;;;;;;;5.00;3.75;;;;;18.24;27.23;102013.78;5079062;27;45355;-48
2022/03/20 06:14:19;;;;;;;;;2.50;2.50;;;;;18.27;27.04;102018.09;5078845;27;46966;-53
2022/03/20 06:16:48;;;;;;;;;3.00;2.25;;;;;18.23;27.02;102017.34;5079160;27;45349;-49
2022/03/20 06:19:15;;;;;;;;;3.00;3.00;;;;;18.23;27.12;102025.22;5078882;27;46156;-49
2022/03/20 06:21:40;;;;;;;;;3.00;3.00;;;;;18.27;27.04;102030.34;5078609;27;45397;-52
2022/03/20 06:24:06;;;;;;;;;4.25;3.75;;;;;18.26;27.18;102033.88;5078814;27;45322;-51
2022/03/20 06:26:31;;;;;;;;;3.50;3.50;;;;;18.26;27.37;102037.38;5079337;27;45573;-52
2022/03/20 06:28:56;;;;;;;;;3.25;2.25;;;;;18.26;27.17;102039.13;5078684;27;46340;-54
2022/03/20 06:31:22;;;;;;;;;3.25;3.25;;;;;18.24;27.05;102031.31;5078772;27;46615;-53
2022/03/20 06:33:48;;;;;;;;;4.00;3.00;;;;;18.27;27.15;102040.84;5078814;27;45315;-53
2022/03/20 06:36:14;;;;;;;;;2.25;2.25;;;;;18.26;27.20;102037.38;5078979;27;45326;-53
2022/03/20 06:38:40;;;;;;;;;3.00;3.00;;;;;18.26;27.20;102037.38;5078752;27;46409;-52
2022/03/20 06:41:08;;;;;;;;;3.00;3.00;;;;;18.24;27.13;102047.91;5077346;27;45378;-54
2022/03/20 06:43:37;;;;;;;;;4.75;4.75;;;;;18.26;27.12;102052.25;5079024;27;45267;-49
2022/03/20 06:46:04;;;;;;;;;5.00;5.00;;;;;18.26;27.07;102050.50;5078955;28;45497;-47
2022/03/20 06:48:30;;;;;;;;;2.25;2.25;;;;;18.24;27.09;102044.44;5078659;27;46491;-55
2022/03/20 06:50:55;;;;;;;;;2.50;2.50;;;;;18.27;27.02;102048.72;5078531;28;45326;-58
2022/03/20 06:53:21;;;;;;;;;2.00;2.00;;;;;18.26;27.19;102054.88;5078578;27;45434;-49
2022/03/20 06:55:47;;;;;;;;;2.50;2.50;;;;;18.24;27.21;102053.16;5078555;27;45536;-50
2022/03/20 06:58:17;;;;;;;;;2.00;2.00;;;;;18.24;27.22;102060.16;5078243;27;45372;-50
2022/03/20 07:00:43;;;;;;;;;6.00;3.50;;;;;18.24;27.27;102058.41;5078037;27;45859;-53
2022/03/20 07:03:09;;;;;;;;;4.00;3.00;;;;;18.26;27.24;102062.75;5078268;27;45448;-51
2022/03/20 07:05:35;;;;;;;;;3.25;3.25;;;;;18.26;27.60;102058.38;5078670;27;45550;-54
2022/03/20 07:08:01;;;;;;;;;2.25;2.00;;;;;18.24;27.01;102061.00;5078443;27;45451;-54
2022/03/20 07:10:27;;;;;;;;;3.00;3.00;;;;;18.26;27.15;102079.38;5076662;27;45609;-53
2022/03/20 07:15:39;;;;;;;;;4.00;2.75;;;;;18.26;27.21;102075.88;5078116;28;45315;-53
2022/03/20 07:18:04;;;;;;;;;4.75;4.50;;;;;18.26;27.11;102078.50;5078135;27;45281;-49
2022/03/20 07:20:30;;;;;;;;;3.25;3.25;;;;;18.26;27.26;102073.25;5077969;27;45279;-54
2022/03/20 07:22:55;;;;;;;;;3.00;3.00;;;;;18.26;27.22;102075.88;5078005;27;45481;-51
2022/03/20 07:30:48;;;;;;;;;3.00;3.00;;;;;18.26;27.31;102073.25;5077924;27;45930;-53
2022/03/20 07:33:14;;;;;;;;;5.75;4.25;;;;;18.27;27.42;102077.59;5078006;27;45184;-51
2022/03/20 07:35:42;;;;;;;;;3.75;3.75;;;;;18.26;27.25;102070.63;5078193;27;45489;-52
2022/03/20 07:38:07;;;;;;;;;3.00;3.00;;;;;18.28;27.28;102066.19;5077663;27;46243;-50
2022/03/20 07:40:32;;;;;;;;;3.25;3.25;;;;;18.27;27.33;102083.72;5077916;27;45472;-48
2022/03/20 07:42:58;;;;;;;;;4.00;4.00;;;;;18.28;27.35;102081.94;5077801;27;45328;-53
2022/03/20 07:45:23;;;;;;;;;4.25;3.75;;;;;18.27;27.34;102080.22;5077850;27;45546;-49
2022/03/20 07:47:48;;;;;;;;;3.00;3.00;;;;;18.28;27.32;102079.31;5077455;27;46496;-47
2022/03/20 07:50:14;;;;;;;;;4.75;4.00;;;;;18.28;27.28;102076.69;5077552;27;45328;-52
2022/03/20 07:52:39;;;;;;;;;3.50;3.50;;;;;18.29;27.39;102081.03;5076963;27;45499;-49
2022/03/20 07:55:05;;;;;;;;;6.25;4.00;;;;;18.28;27.40;102082.81;5078107;27;45486;-49
2022/03/20 07:57:30;;;;;;;;;4.25;3.25;;;;;18.29;27.37;102084.56;5077339;28;45248;-49
2022/03/20 07:59:56;;;;;;;;;2.67;2.67;;;;;18.29;27.48;102086.28;5077220;28;51740;-47
2022/03/20 08:02:23;;;;;;;;;4.00;4.00;;;;;18.30;27.38;102085.41;5075995;28;45367;-50
2022/03/20 08:04:48;;;;;;;;;3.00;3.00;;;;;18.31;27.38;102081.88;5077621;27;45561;-51
2022/03/20 08:07:14;;;;;;;;;7.00;5.00;;;;;18.31;27.49;102076.63;5077179;27;45922;-51
2022/03/20 08:09:39;;;;;;;;;5.75;4.75;;;;;18.30;27.43;102075.75;5077352;27;45294;-52
2022/03/20 08:12:06;;;;;;;;;4.75;4.75;;;;;18.31;27.38;102071.38;5077536;27;45374;-51
2022/03/20 08:14:31;;;;;;;;;4.00;3.50;;;;;18.31;27.34;102076.63;5077190;28;45413;-49
2022/03/20 08:16:56;;;;;;;;;4.50;3.75;;;;;18.31;27.59;102076.63;5076893;27;45922;-47
2022/03/20 08:19:23;;;;;;;;;3.00;3.00;;;;;18.31;27.23;102066.13;5077045;27;45382;-51
2022/03/20 08:21:49;;;;;;;;;6.00;4.25;;;;;18.31;27.33;102072.22;5076987;27;45338;-49
2022/03/20 08:24:15;;;;;;;;;5.50;4.00;;;;;18.31;27.29;102061.72;5077143;27;45430;-49
2022/03/20 08:26:40;;;;;;;;;5.75;5.75;;;;;18.31;27.74;102066.97;5076817;27;45454;-50
2022/03/20 08:29:10;;;;;;;;;3.75;3.75;;;;;18.33;27.31;102074.81;5077124;27;45245;-50
2022/03/20 08:31:36;;;;;;;;;3.25;3.25;;;;;18.32;27.73;102071.31;5076037;27;45382;-49
2022/03/20 08:34:01;;;;;;;;;3.75;3.75;;;;;18.33;27.56;102075.66;5077062;27;45401;-51
2022/03/20 08:36:27;;;;;;;;;5.00;4.00;;;;;18.34;27.35;102082.66;5076602;28;45942;-50
2022/03/20 08:38:52;;;;;;;;;5.75;5.50;;;;;18.34;27.51;102071.31;5076734;28;45315;-49
2022/03/20 08:41:18;;;;;;;;;5.00;5.00;;;;;18.35;27.43;102073.03;5076793;27;45367;-48
2022/03/20 08:43:44;;;;;;;;;5.25;4.75;;;;;18.35;27.52;102073.03;5076816;27;45361;-50
2022/03/20 08:46:09;;;;;;;;;7.00;6.50;;;;;18.36;27.50;102079.97;5076714;27;45810;-44
2022/03/20 08:48:35;;;;;;;;;6.75;4.75;;;;;18.36;27.39;102074.72;5076604;27;45317;-52
2022/03/20 08:51:00;;;;;;;;;4.50;4.00;;;;;18.34;27.39;102074.78;5076840;27;45302;-50
2022/03/20 08:53:26;;;;;;;;;7.00;6.00;;;;;18.36;27.50;102085.22;5075317;28;45577;-48
2022/03/20 08:55:51;;;;;;;;;5.25;4.00;;;;;18.38;27.51;102078.19;5076363;27;47054;-50
2022/03/20 08:58:17;;;;;;;;;5.00;5.00;;;;;18.37;27.50;102087.81;5076501;27;45372;-48
2022/03/20 09:00:43;;;;;;;;;5.00;5.00;;;;;18.37;27.47;102086.94;5076473;27;45231;-44
2022/03/20 09:03:13;;;;;;;;;6.50;6.25;;;;;18.40;27.41;102097.38;5077149;27;45534;-47
2022/03/20 09:05:39;;;;;;;;;5.25;5.25;;;;;18.39;27.42;102095.66;5078832;28;48320;-52
2022/03/20 09:08:05;;;;;;;;;7.25;7.25;;;;;18.40;27.58;102094.75;5079946;27;45888;-49
2022/03/20 09:10:31;;;;;;;;;5.50;5.50;;;;;18.40;27.40;102094.75;5080105;27;45333;-49
2022/03/20 09:13:00;;;;;;;;;7.25;6.00;;;;;18.40;27.50;102097.38;5080275;27;45397;-51
2022/03/20 09:15:27;;;;;;;;;10.25;9.00;;;;;18.41;27.60;102093.00;5079475;27;46332;-54
2022/03/20 09:20:38;;;;;;;;;7.00;5.00;;;;;18.36;27.58;102090.47;5079765;28;45357;-50
2022/03/20 09:23:05;;;;;;;;;7.75;6.00;;;;;18.39;27.41;102101.78;5078435;27;45490;-53
2022/03/20 09:25:32;;;;;;;;;9.50;7.50;;;;;18.39;27.28;102103.53;5079614;27;45533;-51
2022/03/20 09:27:58;;;;;;;;;7.75;7.75;;;;;18.41;27.49;102106.97;5079646;27;45892;-53
2022/03/20 09:30:23;;;;;;;;;8.50;8.00;;;;;18.39;27.34;102103.53;5079656;27;45290;-50
2022/03/20 09:32:49;;;;;;;;;7.00;7.00;;;;;18.40;27.38;102107.88;5079850;27;45567;-49
2022/03/20 09:35:16;;;;;;;;;10.25;10.25;;;;;18.41;27.40;102103.50;5079502;27;46009;-49
2022/03/20 09:37:42;;;;;;;;;9.00;6.75;;;;;18.41;27.56;102100.88;5079817;27;45341;-51
2022/03/20 09:40:12;;;;;;;;;4.75;3.50;;;;;18.42;27.47;102100.81;5079971;27;45466;-52
2022/03/20 09:42:38;;;;;;;;;7.50;6.50;;;;;18.44;27.28;102098.16;5079628;27;45607;-52
2022/03/20 09:45:05;;;;;;;;;8.00;7.00;;;;;18.43;27.48;102096.44;5078251;28;47442;-46
2022/03/20 09:47:35;;;;;;;;;8.25;6.25;;;;;18.44;27.63;102098.16;5079254;27;46074;-48
2022/03/20 09:50:00;;;;;;;;;6.50;6.50;;;;;18.44;27.55;102093.78;5079425;27;45374;-52
2022/03/20 09:52:26;;;;;;;;;10.00;8.00;;;;;18.43;27.46;102081.56;5079601;27;45399;-48
2022/03/20 09:54:51;;;;;;;;;8.25;7.50;;;;;18.46;27.65;102086.72;5079187;27;46039;-47
2022/03/20 09:57:16;;;;;;;;;5.25;4.50;;;;;18.47;27.66;102085.81;5077936;28;45340;-51
2022/03/20 09:59:42;;;;;;;;;5.75;5.75;;;;;18.46;27.53;102086.72;5079634;27;45299;-53
2022/03/20 10:02:10;;;;;;;;;6.75;6.75;;;;;18.48;27.74;102084.91;5079270;27;45363;-54
2022/03/20 10:04:59;;;;;;;;;9.00;8.50;;;;;18.49;27.73;102091.88;5079015;27;45463;-46
2022/03/20 10:07:29;;;;;;;;;6.50;5.25;;;;;18.49;27.63;102083.16;5079231;27;45428;-53
2022/03/20 10:10:13;;;;;;;;;6.00;6.00;;;;;18.50;27.57;102087.50;5079321;27;45346;-45
2022/03/20 10:12:43;;;;;;;;;8.00;8.00;;;;;18.49;27.50;102091.88;5079084;28;45260;-51
2022/03/20 10:15:12;;;;;;;;;6.25;5.00;;;;;18.49;27.59;102083.16;5078405;27;47216;-51
2022/03/20 10:17:39;;;;;;;;;3.00;2.00;;;;;18.51;27.77;102100.56;5078758;27;45773;-50
2022/03/20 10:20:18;;;;;;;;;11.00;10.75;;;;;18.51;27.45;102097.94;5078960;27;45236;-52
2022/03/20 10:22:45;;;;;;;;;8.50;7.00;;;;;18.51;27.69;102095.31;5079155;27;45334;-50
2022/03/20 10:25:14;;;;;;;;;7.00;6.25;;;;;18.52;27.76;102086.56;5078900;27;46574;-54
2022/03/20 10:27:55;;;;;;;;;9.00;7.25;;;;;18.51;27.54;102092.69;5078624;27;45395;-51
2022/03/20 10:30:20;;;;;;;;;8.00;7.50;;;;;18.52;27.59;102094.44;5078743;27;45354;-53
2022/03/20 10:32:49;;;;;;;;;9.50;6.25;;;;;18.52;27.66;102089.19;5078881;28;45559;-45
2022/03/20 10:35:17;;;;;;;;;7.50;6.75;;;;;18.53;27.64;102097.91;5077423;28;45672;-52
2022/03/20 10:37:57;;;;;;;;;7.50;7.50;;;;;18.51;27.62;102090.06;5078805;27;45470;-51
2022/03/20 10:40:22;;;;;;;;;9.00;7.25;;;;;18.51;27.65;102095.31;5078813;27;45203;-53
2022/03/20 10:43:06;;;;;;;;;10.75;9.00;;;;;18.51;27.72;102089.22;5078461;27;45644;-51
2022/03/20 10:45:48;;;;;;;;;8.75;7.75;;;;;18.51;27.38;102095.31;5078191;28;46915;-54
2022/03/20 10:48:16;;;;;;;;;8.25;7.75;;;;;18.51;27.46;102091.84;5078707;27;45940;-51
2022/03/20 10:50:48;;;;;;;;;4.75;4.75;;;;;18.50;27.51;102093.59;5078667;27;45288;-50
2022/03/20 10:53:13;;;;;;;;;8.50;7.00;;;;;18.50;27.42;102090.97;5078718;27;45592;-52
2022/03/20 10:55:39;;;;;;;;;6.00;6.00;;;;;18.49;27.39;102086.63;5078324;27;45329;-53
2022/03/20 10:58:18;;;;;;;;;9.25;9.25;;;;;18.52;27.50;102097.06;5078264;27;45285;-55
2022/03/20 11:00:45;;;;;;;;;9.25;8.75;;;;;18.51;27.57;102090.06;5078684;27;45338;-52
2022/03/20 11:03:14;;;;;;;;;10.00;7.75;;;;;18.51;27.39;102090.06;5077251;28;45573;-53
2022/03/20 11:05:40;;;;;;;;;9.75;8.00;;;;;18.51;27.40;102086.59;5078008;27;46090;-50
2022/03/20 11:08:06;;;;;;;;;13.75;8.00;;;;;18.51;27.45;102084.81;5078092;27;45228;-52
2022/03/20 11:10:32;;;;;;;;;7.00;7.00;;;;;18.51;27.36;102079.56;5078080;27;45418;-51
2022/03/20 11:12:57;;;;;;;;;7.25;7.25;;;;;18.52;27.35;102081.31;5078225;27;45185;-53
2022/03/20 11:15:23;;;;;;;;;8.50;7.25;;;;;18.51;27.42;102078.72;5077656;27;46998;-54
2022/03/20 11:17:50;;;;;;;;;11.75;7.00;;;;;18.52;27.75;102083.09;5077931;28;45359;-53
2022/03/20 11:20:18;;;;;;;;;8.50;8.00;;;;;18.52;27.52;102080.47;5078386;27;45385;-49
2022/03/20 11:22:51;;;;;;;;;10.50;7.50;;;;;18.53;27.68;102077.78;5078421;27;45317;-52
2022/03/20 11:25:21;;;;;;;;;8.25;8.25;;;;;18.53;27.36;102083.03;5077928;27;46317;-51
2022/03/20 11:27:52;;;;;;;;;10.00;6.25;;;;;18.54;27.50;102081.25;5077414;27;45173;-51
2022/03/20 11:30:20;;;;;;;;;11.25;9.00;;;;;18.53;27.33;102082.16;5078360;27;45406;-51
2022/03/20 11:32:48;;;;;;;;;8.25;8.25;;;;;18.52;27.04;102075.19;5078383;27;45603;-50
2022/03/20 11:35:15;;;;;;;;;9.50;8.25;;;;;18.53;27.45;102077.78;5076799;27;48401;-50
2022/03/20 11:37:50;;;;;;;;;6.25;6.25;;;;;18.54;27.41;102078.63;5077860;27;45179;-52
2022/03/20 11:40:22;;;;;;;;;6.25;6.00;;;;;18.54;27.25;102073.38;5078230;27;45424;-49
2022/03/20 11:42:49;;;;;;;;;7.25;6.50;;;;;18.54;27.44;102071.63;5078077;27;45251;-51
2022/03/20 11:45:20;;;;;;;;;6.25;4.75;;;;;18.55;27.38;102069.84;5076423;28;47483;-52
2022/03/20 11:48:10;;;;;;;;;8.00;8.00;;;;;18.56;27.23;102073.34;5077948;27;45201;-54
2022/03/20 11:50:49;;;;;;;;;11.25;7.25;;;;;18.57;27.07;102075.06;5077594;27;45471;-51
2022/03/20 11:53:26;;;;;;;;;9.50;7.00;;;;;18.56;27.21;102078.59;5077823;27;45536;-54
2022/03/20 11:55:52;;;;;;;;;7.25;5.50;;;;;18.57;27.31;102069.81;5075787;28;48256;-55